sensor_id;sensor_type;location;lat;lon;timestamp;pressure;altitude;pressure_sealevel;temperature;humidity
6899;BME280;3488;42.616;23.350;2023-02-17T00:01:30;62222.50;;;2.14;74.97
6899;BME280;3488;42.616;23.350;2023-02-17T00:03:58;62221.47;;;2.13;75.20
6899;BME280;3488;42.616;23.350;2023-02-17T00:06:27;62222.94;;;2.12;75.19
6899;BME280;3488;42.616;23.350;2023-02-17T00:08:55;62219.84;;;2.09;75.50
6899;BME280;3488;42.616;23.350;2023-02-17T00:11:22;62208.28;;;2.07;75.92
6899;BME280;3488;42.616;23.350;2023-02-17T00:13:50;62217.88;;;2.09;74.93
6899;BME280;3488;42.616;23.350;2023-02-17T00:16:21;62211.25;;;2.05;74.53
6899;BME280;3488;42.616;23.350;2023-02-17T00:18:52;62208.22;;;2.05;74.45
6899;BME280;3488;42.616;23.350;2023-02-17T00:21:21;62207.19;;;2.04;72.69
6899;BME280;3488;42.616;23.350;2023-02-17T00:23:49;62206.09;;;2.00;72.36
6899;BME280;3488;42.616;23.350;2023-02-17T00:26:18;62205.03;;;1.97;72.08
6899;BME280;3488;42.616;23.350;2023-02-17T00:28:45;62206.63;;;2.01;72.40
6899;BME280;3488;42.616;23.350;2023-02-17T00:31:14;62204.06;;;1.98;72.52
6899;BME280;3488;42.616;23.350;2023-02-17T00:33:43;62198.41;;;1.93;72.54
6899;BME280;3488;42.616;23.350;2023-02-17T00:36:12;62194.81;;;1.89;72.67
6899;BME280;3488;42.616;23.350;2023-02-17T00:38:42;62201.44;;;1.93;72.29
6899;BME280;3488;42.616;23.350;2023-02-17T00:41:09;62197.91;;;1.92;71.87
6899;BME280;3488;42.616;23.350;2023-02-17T00:43:36;62189.28;;;1.89;70.71
6899;BME280;3488;42.616;23.350;2023-02-17T00:46:04;62204.00;;;1.96;71.11
6899;BME280;3488;42.616;23.350;2023-02-17T00:48:31;62206.09;;;2.00;72.20
6899;BME280;3488;42.616;23.350;2023-02-17T00:50:59;62206.63;;;2.01;72.59
6899;BME280;3488;42.616;23.350;2023-02-17T00:53:26;62205.16;;;2.02;73.19
6899;BME280;3488;42.616;23.350;2023-02-17T00:55:53;62214.28;;;2.06;73.15
6899;BME280;3488;42.616;23.350;2023-02-17T00:58:20;62211.31;;;2.08;72.27
6899;BME280;3488;42.616;23.350;2023-02-17T01:00:48;62208.72;;;2.05;71.82
6899;BME280;3488;42.616;23.350;2023-02-17T01:03:15;62205.19;;;2.04;72.58
6899;BME280;3488;42.616;23.350;2023-02-17T01:05:45;62196.94;;;1.94;72.66
6899;BME280;3488;42.616;23.350;2023-02-17T01:08:15;62193.28;;;1.88;73.71
6899;BME280;3488;42.616;23.350;2023-02-17T01:10:46;62204.53;;;1.96;74.23
6899;BME280;3488;42.616;23.350;2023-02-17T01:13:14;62196.81;;;1.89;75.03
6899;BME280;3488;42.616;23.350;2023-02-17T01:15:45;62198.97;;;1.96;75.78
6899;BME280;3488;42.616;23.350;2023-02-17T01:18:14;62208.22;;;2.05;75.81
6899;BME280;3488;42.616;23.350;2023-02-17T01:20:41;62211.25;;;2.05;75.99
6899;BME280;3488;42.616;23.350;2023-02-17T01:23:09;62209.75;;;2.06;76.51
6899;BME280;3488;42.616;23.350;2023-02-17T01:25:39;62206.06;;;1.98;76.47
6899;BME280;3488;42.616;23.350;2023-02-17T01:28:07;62205.59;;;2.00;77.28
6899;BME280;3488;42.616;23.350;2023-02-17T01:30:34;62200.97;;;1.95;76.85
6899;BME280;3488;42.616;23.350;2023-02-17T01:33:01;62197.91;;;1.92;77.10
6899;BME280;3488;42.616;23.350;2023-02-17T01:35:28;62197.97;;;1.95;77.50
6899;BME280;3488;42.616;23.350;2023-02-17T01:37:55;62204.47;;;1.94;78.06
6899;BME280;3488;42.616;23.350;2023-02-17T01:40:23;62194.75;;;1.87;79.24
6899;BME280;3488;42.616;23.350;2023-02-17T01:42:52;62180.50;;;1.78;80.18
6899;BME280;3488;42.616;23.350;2023-02-17T01:45:35;62209.09;;;1.98;80.10
6899;BME280;3488;42.616;23.350;2023-02-17T01:48:06;62195.28;;;1.87;80.70
6899;BME280;3488;42.616;23.350;2023-02-17T01:50:38;62193.91;;;1.93;81.88
6899;BME280;3488;42.616;23.350;2023-02-17T01:53:06;62191.22;;;1.86;82.85
6899;BME280;3488;42.616;23.350;2023-02-17T01:55:36;62189.16;;;1.84;83.33
6899;BME280;3488;42.616;23.350;2023-02-17T01:58:08;62188.66;;;1.83;82.79
6899;BME280;3488;42.616;23.350;2023-02-17T02:00:36;62176.34;;;1.71;83.22
6899;BME280;3488;42.616;23.350;2023-02-17T02:03:07;62167.56;;;1.60;84.37
6899;BME280;3488;42.616;23.350;2023-02-17T02:05:37;62169.66;;;1.65;84.14
6899;BME280;3488;42.616;23.350;2023-02-17T02:08:05;62161.50;;;1.59;83.86
6899;BME280;3488;42.616;23.350;2023-02-17T02:10:32;62173.19;;;1.66;84.20
6899;BME280;3488;42.616;23.350;2023-02-17T02:12:59;62169.72;;;1.67;84.07
6899;BME280;3488;42.616;23.350;2023-02-17T02:15:32;62166.13;;;1.64;84.35
6899;BME280;3488;42.616;23.350;2023-02-17T02:18:12;62170.19;;;1.65;84.57
6899;BME280;3488;42.616;23.350;2023-02-17T02:23:53;62175.38;;;1.73;84.87
6899;BME280;3488;42.616;23.350;2023-02-17T02:26:49;62174.28;;;1.69;85.02
6899;BME280;3488;42.616;23.350;2023-02-17T02:29:54;62163.03;;;1.61;85.30
6899;BME280;3488;42.616;23.350;2023-02-17T02:32:45;62126.69;;;1.28;87.02
6899;BME280;3488;42.616;23.350;2023-02-17T02:35:17;62143.91;;;1.35;87.41
6899;BME280;3488;42.616;23.350;2023-02-17T02:37:51;62143.44;;;1.37;87.63
6899;BME280;3488;42.616;23.350;2023-02-17T02:40:21;62146.56;;;1.42;87.17
6899;BME280;3488;42.616;23.350;2023-02-17T02:42:50;62140.44;;;1.36;87.78
6899;BME280;3488;42.616;23.350;2023-02-17T02:45:18;62141.50;;;1.40;87.26
6899;BME280;3488;42.616;23.350;2023-02-17T02:47:49;62139.97;;;1.38;87.68
6899;BME280;3488;42.616;23.350;2023-02-17T02:50:19;62132.63;;;1.24;88.85
6899;BME280;3488;42.616;23.350;2023-02-17T02:52:59;62129.19;;;1.28;88.29
6899;BME280;3488;42.616;23.350;2023-02-17T02:55:42;62127.03;;;1.21;88.03
6899;BME280;3488;42.616;23.350;2023-02-17T02:58:16;62126.06;;;1.22;87.73
6899;BME280;3488;42.616;23.350;2023-02-17T03:00:51;62118.94;;;1.17;87.85
6899;BME280;3488;42.616;23.350;2023-02-17T03:03:27;62118.31;;;1.12;88.75
6899;BME280;3488;42.616;23.350;2023-02-17T03:06:00;62117.34;;;1.13;88.48
6899;BME280;3488;42.616;23.350;2023-02-17T03:08:33;62111.75;;;1.10;88.52
6899;BME280;3488;42.616;23.350;2023-02-17T03:11:01;62119.84;;;1.13;88.76
6899;BME280;3488;42.616;23.350;2023-02-17T03:13:31;62115.91;;;1.17;88.59
6899;BME280;3488;42.616;23.350;2023-02-17T03:16:02;62115.28;;;1.11;88.76
6899;BME280;3488;42.616;23.350;2023-02-17T03:18:32;62112.72;;;1.09;89.00
6899;BME280;3488;42.616;23.350;2023-02-17T03:21:03;62109.19;;;1.08;89.37
6899;BME280;3488;42.616;23.350;2023-02-17T03:23:32;62100.41;;;0.97;89.47
6899;BME280;3488;42.616;23.350;2023-02-17T03:25:59;62093.81;;;0.93;89.89
6899;BME280;3488;42.616;23.350;2023-02-17T03:28:27;62096.88;;;0.96;89.81
6899;BME280;3488;42.616;23.350;2023-02-17T03:30:55;62096.88;;;0.96;90.01
6899;BME280;3488;42.616;23.350;2023-02-17T03:33:22;62097.41;;;0.96;90.21
6899;BME280;3488;42.616;23.350;2023-02-17T03:35:50;62102.97;;;0.99;90.15
6899;BME280;3488;42.616;23.350;2023-02-17T03:38:17;62099.94;;;0.99;90.21
6899;BME280;3488;42.616;23.350;2023-02-17T03:40:44;62100.91;;;0.97;90.88
6899;BME280;3488;42.616;23.350;2023-02-17T03:43:11;62100.47;;;0.99;90.63
6899;BME280;3488;42.616;23.350;2023-02-17T03:45:38;62101.00;;;1.00;89.97
6899;BME280;3488;42.616;23.350;2023-02-17T03:48:05;62109.72;;;1.08;89.97
6899;BME280;3488;42.616;23.350;2023-02-17T03:50:32;62121.50;;;1.20;90.26
6899;BME280;3488;42.616;23.350;2023-02-17T03:53:01;62121.50;;;1.20;90.93
6899;BME280;3488;42.616;23.350;2023-02-17T03:55:29;62112.25;;;1.11;91.46
6899;BME280;3488;42.616;23.350;2023-02-17T03:57:56;62126.06;;;1.22;91.58
6899;BME280;3488;42.616;23.350;2023-02-17T04:00:23;62119.50;;;1.21;91.77
6899;BME280;3488;42.616;23.350;2023-02-17T04:02:50;62134.78;;;1.31;91.72
6899;BME280;3488;42.616;23.350;2023-02-17T04:05:17;62133.69;;;1.27;91.81
6899;BME280;3488;42.616;23.350;2023-02-17T04:07:45;62137.34;;;1.33;91.53
6899;BME280;3488;42.616;23.350;2023-02-17T04:10:13;62136.84;;;1.33;91.43
6899;BME280;3488;42.616;23.350;2023-02-17T04:12:40;62134.81;;;1.33;90.92
6899;BME280;3488;42.616;23.350;2023-02-17T04:15:08;62132.28;;;1.31;90.87
6899;BME280;3488;42.616;23.350;2023-02-17T04:17:36;62138.94;;;1.37;90.57
6899;BME280;3488;42.616;23.350;2023-02-17T04:20:05;62143.44;;;1.37;90.64
6899;BME280;3488;42.616;23.350;2023-02-17T04:22:32;62142.41;;;1.36;90.68
6899;BME280;3488;42.616;23.350;2023-02-17T04:24:59;62142.97;;;1.39;90.60
6899;BME280;3488;42.616;23.350;2023-02-17T04:27:28;62139.91;;;1.36;90.39
6899;BME280;3488;42.616;23.350;2023-02-17T04:29:55;62136.94;;;1.38;90.45
6899;BME280;3488;42.616;23.350;2023-02-17T04:32:22;62130.78;;;1.32;90.74
6899;BME280;3488;42.616;23.350;2023-02-17T04:34:50;62136.88;;;1.35;90.70
6899;BME280;3488;42.616;23.350;2023-02-17T04:37:17;62133.75;;;1.30;90.80
6899;BME280;3488;42.616;23.350;2023-02-17T04:39:44;62132.84;;;1.34;90.13
6899;BME280;3488;42.616;23.350;2023-02-17T04:42:11;62125.53;;;1.22;90.32
6899;BME280;3488;42.616;23.350;2023-02-17T04:44:40;62124.06;;;1.23;90.55
6899;BME280;3488;42.616;23.350;2023-02-17T04:47:07;62129.06;;;1.23;90.58
6899;BME280;3488;42.616;23.350;2023-02-17T04:49:33;62126.06;;;1.22;90.56
6899;BME280;3488;42.616;23.350;2023-02-17T04:52:00;62127.06;;;1.23;90.94
6899;BME280;3488;42.616;23.350;2023-02-17T04:54:27;62124.53;;;1.21;91.92
6899;BME280;3488;42.616;23.350;2023-02-17T04:56:54;62129.06;;;1.23;91.86
6899;BME280;3488;42.616;23.350;2023-02-17T04:59:21;62125.53;;;1.22;91.94
6899;BME280;3488;42.616;23.350;2023-02-17T05:01:50;62126.56;;;1.23;91.05
6899;BME280;3488;42.616;23.350;2023-02-17T05:04:16;62122.47;;;1.18;91.95
6899;BME280;3488;42.616;23.350;2023-02-17T05:06:43;62125.03;;;1.21;92.12
6899;BME280;3488;42.616;23.350;2023-02-17T05:09:10;62123.94;;;1.17;92.43
6899;BME280;3488;42.616;23.350;2023-02-17T05:11:38;62119.41;;;1.15;93.08
6899;BME280;3488;42.616;23.350;2023-02-17T05:14:04;62114.31;;;1.13;93.60
6899;BME280;3488;42.616;23.350;2023-02-17T05:16:31;62099.94;;;0.99;94.40
6899;BME280;3488;42.616;23.350;2023-02-17T05:19:00;62105.59;;;1.04;94.10
6899;BME280;3488;42.616;23.350;2023-02-17T05:21:27;62105.53;;;1.02;93.65
6899;BME280;3488;42.616;23.350;2023-02-17T05:23:54;62095.41;;;0.97;93.71
6899;BME280;3488;42.616;23.350;2023-02-17T05:26:21;62094.81;;;0.94;94.48
6899;BME280;3488;42.616;23.350;2023-02-17T05:28:48;62105.03;;;1.01;94.70
6899;BME280;3488;42.616;23.350;2023-02-17T05:31:15;62096.31;;;0.93;94.72
6899;BME280;3488;42.616;23.350;2023-02-17T05:33:43;62103.03;;;1.02;95.54
6899;BME280;3488;42.616;23.350;2023-02-17T05:36:12;62109.59;;;1.03;95.89
6899;BME280;3488;42.616;23.350;2023-02-17T05:38:39;62111.81;;;1.13;95.85
6899;BME280;3488;42.616;23.350;2023-02-17T05:41:06;62118.44;;;1.17;95.41
6899;BME280;3488;42.616;23.350;2023-02-17T05:43:33;62123.94;;;1.17;95.30
6899;BME280;3488;42.616;23.350;2023-02-17T05:46:02;62115.91;;;1.17;95.87
6899;BME280;3488;42.616;23.350;2023-02-17T05:48:30;62134.72;;;1.28;95.44
6899;BME280;3488;42.616;23.350;2023-02-17T05:50:57;62126.06;;;1.22;95.53
6899;BME280;3488;42.616;23.350;2023-02-17T05:53:25;62132.22;;;1.28;95.20
6899;BME280;3488;42.616;23.350;2023-02-17T05:55:52;62125.59;;;1.24;95.64
6899;BME280;3488;42.616;23.350;2023-02-17T05:58:20;62132.84;;;1.34;95.50
6899;BME280;3488;42.616;23.350;2023-02-17T06:00:47;62142.97;;;1.39;95.25
6899;BME280;3488;42.616;23.350;2023-02-17T06:03:14;62138.38;;;1.34;95.46
6899;BME280;3488;42.616;23.350;2023-02-17T06:05:43;62150.84;;;1.54;95.27
6899;BME280;3488;42.616;23.350;2023-02-17T06:08:10;62162.53;;;1.60;94.82
6899;BME280;3488;42.616;23.350;2023-02-17T06:10:40;62171.31;;;1.71;94.32
6899;BME280;3488;42.616;23.350;2023-02-17T06:13:08;62188.75;;;1.88;93.77
6899;BME280;3488;42.616;23.350;2023-02-17T06:15:35;62200.47;;;1.95;92.64
6899;BME280;3488;42.616;23.350;2023-02-17T06:18:02;62219.34;;;2.08;91.28
6899;BME280;3488;42.616;23.350;2023-02-17T06:20:29;62216.38;;;2.10;91.27
6899;BME280;3488;42.616;23.350;2023-02-17T06:22:56;62226.13;;;2.20;89.59
6899;BME280;3488;42.616;23.350;2023-02-17T06:25:24;62249.25;;;2.43;86.27
6899;BME280;3488;42.616;23.350;2023-02-17T06:27:55;62250.25;;;2.44;87.82
6899;BME280;3488;42.616;23.350;2023-02-17T06:30:23;62269.28;;;2.62;85.73
6899;BME280;3488;42.616;23.350;2023-02-17T06:32:50;62281.63;;;2.74;84.31
6899;BME280;3488;42.616;23.350;2023-02-17T06:35:17;62300.66;;;2.95;84.03
6899;BME280;3488;42.616;23.350;2023-02-17T06:37:44;62315.56;;;3.10;82.67
6899;BME280;3488;42.616;23.350;2023-02-17T06:40:11;62337.16;;;3.31;82.07
6899;BME280;3488;42.616;23.350;2023-02-17T06:42:38;62347.44;;;3.41;81.11
6899;BME280;3488;42.616;23.350;2023-02-17T06:45:08;62358.19;;;3.49;81.27
6899;BME280;3488;42.616;23.350;2023-02-17T06:47:35;62378.69;;;3.67;78.59
6899;BME280;3488;42.616;23.350;2023-02-17T06:50:02;62376.75;;;3.70;79.01
6899;BME280;3488;42.616;23.350;2023-02-17T06:52:29;62390.06;;;3.80;77.78
6899;BME280;3488;42.616;23.350;2023-02-17T06:54:56;62395.72;;;3.86;76.63
6899;BME280;3488;42.616;23.350;2023-02-17T06:57:23;62397.31;;;3.90;76.57
6899;BME280;3488;42.616;23.350;2023-02-17T06:59:50;62398.88;;;3.91;76.58
6899;BME280;3488;42.616;23.350;2023-02-17T07:02:19;62407.53;;;3.97;77.12
6899;BME280;3488;42.616;23.350;2023-02-17T07:04:46;62412.19;;;4.02;76.92
6899;BME280;3488;42.616;23.350;2023-02-17T07:07:13;62416.69;;;4.01;76.48
6899;BME280;3488;42.616;23.350;2023-02-17T07:09:41;62402.34;;;3.90;75.42
6899;BME280;3488;42.616;23.350;2023-02-17T07:12:08;62411.66;;;4.01;75.85
6899;BME280;3488;42.616;23.350;2023-02-17T07:14:35;62421.50;;;4.13;74.58
6899;BME280;3488;42.616;23.350;2023-02-17T07:17:02;62417.94;;;4.12;73.30
6899;BME280;3488;42.616;23.350;2023-02-17T07:19:31;62417.94;;;4.12;72.62
6899;BME280;3488;42.616;23.350;2023-02-17T07:21:58;62434.34;;;4.26;72.49
6899;BME280;3488;42.616;23.350;2023-02-17T07:24:26;62432.81;;;4.24;72.63
6899;BME280;3488;42.616;23.350;2023-02-17T07:26:54;62449.22;;;4.38;72.04
6899;BME280;3488;42.616;23.350;2023-02-17T07:29:22;62452.88;;;4.44;72.21
6899;BME280;3488;42.616;23.350;2023-02-17T07:31:49;62463.13;;;4.51;71.03
6899;BME280;3488;42.616;23.350;2023-02-17T07:34:15;62473.97;;;4.64;72.66
6899;BME280;3488;42.616;23.350;2023-02-17T07:36:44;62486.31;;;4.77;72.20
6899;BME280;3488;42.616;23.350;2023-02-17T07:39:11;62504.28;;;4.92;69.47
6899;BME280;3488;42.616;23.350;2023-02-17T07:41:38;62513.59;;;5.03;69.28
6899;BME280;3488;42.616;23.350;2023-02-17T07:44:05;62529.50;;;5.16;68.51
6899;BME280;3488;42.616;23.350;2023-02-17T07:46:32;62531.19;;;5.23;68.35
6899;BME280;3488;42.616;23.350;2023-02-17T07:48:59;62548.09;;;5.37;67.76
6899;BME280;3488;42.616;23.350;2023-02-17T07:51:27;62551.72;;;5.40;67.06
6899;BME280;3488;42.616;23.350;2023-02-17T07:53:55;62553.22;;;5.39;67.72
6899;BME280;3488;42.616;23.350;2023-02-17T07:56:23;62551.22;;;5.40;68.02
6899;BME280;3488;42.616;23.350;2023-02-17T07:58:51;62563.56;;;5.52;68.44
6899;BME280;3488;42.616;23.350;2023-02-17T08:01:19;62582.00;;;5.65;66.73
6899;BME280;3488;42.616;23.350;2023-02-17T08:03:47;62592.88;;;5.78;64.70
6899;BME280;3488;42.616;23.350;2023-02-17T08:06:15;62606.19;;;5.86;63.97
6899;BME280;3488;42.616;23.350;2023-02-17T08:08:42;62605.31;;;5.93;63.11
6899;BME280;3488;42.616;23.350;2023-02-17T08:11:29;62627.41;;;6.12;62.64
6899;BME280;3488;42.616;23.350;2023-02-17T08:14:15;62641.34;;;6.25;60.03
6899;BME280;3488;42.616;23.350;2023-02-17T08:16:41;62640.88;;;6.27;59.34
6899;BME280;3488;42.616;23.350;2023-02-17T08:19:08;62657.38;;;6.43;60.11
6899;BME280;3488;42.616;23.350;2023-02-17T08:21:35;62672.84;;;6.58;59.97
6899;BME280;3488;42.616;23.350;2023-02-17T08:24:03;62696.47;;;6.76;58.47
6899;BME280;3488;42.616;23.350;2023-02-17T08:26:32;62712.97;;;6.92;58.78
6899;BME280;3488;42.616;23.350;2023-02-17T08:28:59;62709.97;;;6.94;56.86
6899;BME280;3488;42.616;23.350;2023-02-17T08:31:27;62717.72;;;7.02;56.58
6899;BME280;3488;42.616;23.350;2023-02-17T08:33:54;62740.25;;;7.17;56.72
6899;BME280;3488;42.616;23.350;2023-02-17T08:36:23;62750.63;;;7.29;55.01
6899;BME280;3488;42.616;23.350;2023-02-17T08:38:50;62736.78;;;7.21;55.05
6899;BME280;3488;42.616;23.350;2023-02-17T08:41:20;62755.78;;;7.34;55.17
6899;BME280;3488;42.616;23.350;2023-02-17T08:43:49;62764.66;;;7.48;55.23
6899;BME280;3488;42.616;23.350;2023-02-17T08:46:18;62779.19;;;7.67;54.95
6899;BME280;3488;42.616;23.350;2023-02-17T08:48:45;62803.31;;;7.83;54.99
6899;BME280;3488;42.616;23.350;2023-02-17T08:51:13;62811.03;;;7.90;53.90
6899;BME280;3488;42.616;23.350;2023-02-17T08:53:42;62824.47;;;8.03;53.83
6899;BME280;3488;42.616;23.350;2023-02-17T08:56:10;62839.97;;;8.18;53.88
6899;BME280;3488;42.616;23.350;2023-02-17T08:58:38;62853.38;;;8.29;54.07
6899;BME280;3488;42.616;23.350;2023-02-17T09:01:07;62876.66;;;8.54;53.61
6899;BME280;3488;42.616;23.350;2023-02-17T09:03:35;62893.66;;;8.68;52.20
6899;BME280;3488;42.616;23.350;2023-02-17T09:06:03;62893.22;;;8.73;52.08
6899;BME280;3488;42.616;23.350;2023-02-17T09:08:30;62897.22;;;8.69;51.43
6899;BME280;3488;42.616;23.350;2023-02-17T09:10:58;62905.03;;;8.79;51.77
6899;BME280;3488;42.616;23.350;2023-02-17T09:13:25;62924.22;;;9.03;50.72
6899;BME280;3488;42.616;23.350;2023-02-17T09:15:53;62937.53;;;9.08;50.65
6899;BME280;3488;42.616;23.350;2023-02-17T09:18:23;62951.56;;;9.27;50.03
6899;BME280;3488;42.616;23.350;2023-02-17T09:20:51;62971.22;;;9.46;49.71
6899;BME280;3488;42.616;23.350;2023-02-17T09:23:19;62988.19;;;9.58;49.23
6899;BME280;3488;42.616;23.350;2023-02-17T09:25:46;62992.84;;;9.62;48.81
6899;BME280;3488;42.616;23.350;2023-02-17T09:28:13;62995.47;;;9.67;48.44
6899;BME280;3488;42.616;23.350;2023-02-17T09:30:41;63019.78;;;9.91;47.31
6899;BME280;3488;42.616;23.350;2023-02-17T09:33:09;63019.34;;;9.95;47.73
6899;BME280;3488;42.616;23.350;2023-02-17T09:35:38;63017.75;;;9.91;47.28
6899;BME280;3488;42.616;23.350;2023-02-17T09:38:05;63027.06;;;10.00;46.86
6899;BME280;3488;42.616;23.350;2023-02-17T09:40:40;63042.06;;;10.15;47.51
6899;BME280;3488;42.616;23.350;2023-02-17T09:43:11;63052.47;;;10.27;48.09
6899;BME280;3488;42.616;23.350;2023-02-17T09:45:41;63054.03;;;10.29;47.46
6899;BME280;3488;42.616;23.350;2023-02-17T09:48:12;63073.66;;;10.45;48.04
6899;BME280;3488;42.616;23.350;2023-02-17T09:50:47;63090.72;;;10.62;47.15
6899;BME280;3488;42.616;23.350;2023-02-17T09:53:21;63108.75;;;10.75;46.35
6899;BME280;3488;42.616;23.350;2023-02-17T09:55:52;63123.88;;;10.97;44.08
6899;BME280;3488;42.616;23.350;2023-02-17T09:58:23;63127.00;;;11.00;42.59
6899;BME280;3488;42.616;23.350;2023-02-17T10:00:54;63161.59;;;11.28;35.54
6899;BME280;3488;42.616;23.350;2023-02-17T10:03:26;63190.09;;;11.56;36.58
6899;BME280;3488;42.616;23.350;2023-02-17T10:06:05;63190.16;;;11.61;34.99
6899;BME280;3488;42.616;23.350;2023-02-17T10:08:41;63191.69;;;11.60;34.08
6899;BME280;3488;42.616;23.350;2023-02-17T10:11:18;63205.75;;;11.79;33.94
6899;BME280;3488;42.616;23.350;2023-02-17T10:13:49;63222.22;;;11.87;33.76
6899;BME280;3488;42.616;23.350;2023-02-17T10:16:21;63232.13;;;11.99;33.44
6899;BME280;3488;42.616;23.350;2023-02-17T10:18:56;63248.19;;;12.15;33.27
6899;BME280;3488;42.616;23.350;2023-02-17T10:21:30;63261.56;;;12.23;33.52
6899;BME280;3488;42.616;23.350;2023-02-17T10:23:58;63250.81;;;12.20;32.67
6899;BME280;3488;42.616;23.350;2023-02-17T10:26:37;63223.78;;;11.89;32.65
6899;BME280;3488;42.616;23.350;2023-02-17T10:29:26;63205.16;;;11.73;33.13
6899;BME280;3488;42.616;23.350;2023-02-17T10:32:04;63213.47;;;11.81;34.01
6899;BME280;3488;42.616;23.350;2023-02-17T10:34:34;63223.25;;;11.88;33.37
6899;BME280;3488;42.616;23.350;2023-02-17T10:37:12;63208.22;;;11.74;32.34
6899;BME280;3488;42.616;23.350;2023-02-17T10:39:46;63196.88;;;11.65;32.64
6899;BME280;3488;42.616;23.350;2023-02-17T10:42:20;63202.16;;;11.75;33.89
6899;BME280;3488;42.616;23.350;2023-02-17T10:44:48;63212.38;;;11.78;32.73
6899;BME280;3488;42.616;23.350;2023-02-17T10:47:17;63225.34;;;11.90;33.52
6899;BME280;3488;42.616;23.350;2023-02-17T10:49:49;63235.16;;;11.97;33.99
6899;BME280;3488;42.616;23.350;2023-02-17T10:52:20;63225.88;;;11.93;33.38
6899;BME280;3488;42.616;23.350;2023-02-17T10:54:52;63220.16;;;11.85;33.76
6899;BME280;3488;42.616;23.350;2023-02-17T10:57:22;63232.13;;;11.99;34.07
6899;BME280;3488;42.616;23.350;2023-02-17T10:59:52;63253.91;;;12.23;33.64
6899;BME280;3488;42.616;23.350;2023-02-17T11:02:21;63261.09;;;12.25;34.08
6899;BME280;3488;42.616;23.350;2023-02-17T11:04:52;63266.78;;;12.30;33.98
6899;BME280;3488;42.616;23.350;2023-02-17T11:07:26;63258.63;;;12.30;33.52
6899;BME280;3488;42.616;23.350;2023-02-17T11:09:59;63279.78;;;12.45;33.56
6899;BME280;3488;42.616;23.350;2023-02-17T11:12:32;63282.38;;;12.48;32.97
6899;BME280;3488;42.616;23.350;2023-02-17T11:15:03;63287.53;;;12.50;33.97
6899;BME280;3488;42.616;23.350;2023-02-17T11:17:37;63294.78;;;12.57;33.45
6899;BME280;3488;42.616;23.350;2023-02-17T11:20:27;63288.53;;;12.49;33.58
6899;BME280;3488;42.616;23.350;2023-02-17T11:23:03;63301.00;;;12.63;33.32
6899;BME280;3488;42.616;23.350;2023-02-17T11:25:32;63301.03;;;12.66;33.75
6899;BME280;3488;42.616;23.350;2023-02-17T11:28:02;63289.63;;;12.55;33.77
6899;BME280;3488;42.616;23.350;2023-02-17T11:30:31;63287.03;;;12.52;34.23
6899;BME280;3488;42.616;23.350;2023-02-17T11:32:58;63302.00;;;12.62;34.38
6899;BME280;3488;42.616;23.350;2023-02-17T11:35:27;63287.03;;;12.52;34.03
6899;BME280;3488;42.616;23.350;2023-02-17T11:38:13;63299.91;;;12.60;34.22
6899;BME280;3488;42.616;23.350;2023-02-17T11:40:51;63301.56;;;12.66;33.55
6899;BME280;3488;42.616;23.350;2023-02-17T11:43:18;63324.34;;;12.86;33.90
6899;BME280;3488;42.616;23.350;2023-02-17T11:45:50;63323.84;;;12.88;33.20
6899;BME280;3488;42.616;23.350;2023-02-17T11:48:36;63336.81;;;13.01;33.25
6899;BME280;3488;42.616;23.350;2023-02-17T11:51:10;63329.59;;;12.96;33.30
6899;BME280;3488;42.616;23.350;2023-02-17T11:53:49;63312.88;;;12.72;34.00
6899;BME280;3488;42.616;23.350;2023-02-17T11:56:22;63291.16;;;12.54;34.29
6899;BME280;3488;42.616;23.350;2023-02-17T11:59:11;63287.53;;;12.50;34.89
6899;BME280;3488;42.616;23.350;2023-02-17T12:01:54;63281.91;;;12.50;34.83
6899;BME280;3488;42.616;23.350;2023-02-17T12:04:26;63284.41;;;12.47;34.18
6899;BME280;3488;42.616;23.350;2023-02-17T12:10:02;63306.19;;;12.68;35.27
6899;BME280;3488;42.616;23.350;2023-02-17T12:12:42;63310.41;;;12.77;35.03
6899;BME280;3488;42.616;23.350;2023-02-17T12:15:26;63308.84;;;12.76;35.77
6899;BME280;3488;42.616;23.350;2023-02-17T12:18:03;63325.41;;;12.90;35.24
6899;BME280;3488;42.616;23.350;2023-02-17T12:20:40;63312.00;;;12.82;36.05
6899;BME280;3488;42.616;23.350;2023-02-17T12:23:30;63322.78;;;12.85;35.89
6899;BME280;3488;42.616;23.350;2023-02-17T12:26:10;63326.94;;;12.89;35.47
6899;BME280;3488;42.616;23.350;2023-02-17T12:28:51;63319.16;;;12.81;35.70
6899;BME280;3488;42.616;23.350;2023-02-17T12:31:40;63338.84;;;13.00;35.91
6899;BME280;3488;42.616;23.350;2023-02-17T12:34:17;63315.50;;;12.77;36.86
6899;BME280;3488;42.616;23.350;2023-02-17T12:36:48;63302.59;;;12.67;35.93
6899;BME280;3488;42.616;23.350;2023-02-17T12:39:19;63290.06;;;12.50;35.82
6899;BME280;3488;42.616;23.350;2023-02-17T12:41:52;63295.84;;;12.61;35.39
6899;BME280;3488;42.616;23.350;2023-02-17T12:44:24;63310.41;;;12.77;35.67
6899;BME280;3488;42.616;23.350;2023-02-17T12:46:55;63332.63;;;12.94;35.92
6899;BME280;3488;42.616;23.350;2023-02-17T12:49:29;63319.19;;;12.84;36.06
6899;BME280;3488;42.616;23.350;2023-02-17T12:52:02;63324.81;;;12.84;36.63
6899;BME280;3488;42.616;23.350;2023-02-17T12:54:35;63333.66;;;12.95;36.20
6899;BME280;3488;42.616;23.350;2023-02-17T12:57:16;63335.22;;;12.97;35.61
6899;BME280;3488;42.616;23.350;2023-02-17T12:59:45;63337.38;;;13.04;36.01
6899;BME280;3488;42.616;23.350;2023-02-17T13:02:15;63333.19;;;12.97;36.25
6899;BME280;3488;42.616;23.350;2023-02-17T13:04:45;63338.41;;;13.02;36.72
6899;BME280;3488;42.616;23.350;2023-02-17T13:10:21;63338.91;;;13.03;35.95
6899;BME280;3488;42.616;23.350;2023-02-17T13:12:59;63350.31;;;13.14;35.97
6899;BME280;3488;42.616;23.350;2023-02-17T13:15:37;63355.44;;;13.14;35.71
6899;BME280;3488;42.616;23.350;2023-02-17T13:18:06;63338.91;;;13.03;35.82
6899;BME280;3488;42.616;23.350;2023-02-17T13:20:50;63364.28;;;13.25;35.93
6899;BME280;3488;42.616;23.350;2023-02-17T13:23:42;63384.03;;;13.46;35.10
6899;BME280;3488;42.616;23.350;2023-02-17T13:26:33;63380.44;;;13.45;35.77
6899;BME280;3488;42.616;23.350;2023-02-17T13:29:20;63364.84;;;13.28;35.36
6899;BME280;3488;42.616;23.350;2023-02-17T13:31:51;63370.50;;;13.31;35.38
6899;BME280;3488;42.616;23.350;2023-02-17T13:34:33;63375.59;;;13.28;35.38
6899;BME280;3488;42.616;23.350;2023-02-17T13:37:12;63372.06;;;13.32;34.85
6899;BME280;3488;42.616;23.350;2023-02-17T13:39:41;63381.41;;;13.41;34.65
6899;BME280;3488;42.616;23.350;2023-02-17T13:42:33;63409.97;;;13.71;34.10
6899;BME280;3488;42.616;23.350;2023-02-17T13:45:12;63425.50;;;13.84;33.60
6899;BME280;3488;42.616;23.350;2023-02-17T13:47:40;63420.38;;;13.84;33.41